createdAt,value
2023-08-19T00:01:55.415Z,13.53
2023-08-19T00:04:24.889Z,12.60
2023-08-19T00:06:53.804Z,12.20
2023-08-19T00:09:22.700Z,11.97
2023-08-19T00:11:49.688Z,11.57
2023-08-19T00:14:17.909Z,11.53
2023-08-19T00:16:45.258Z,9.97
2023-08-19T00:19:12.773Z,11.67
2023-08-19T00:21:43.403Z,11.30
2023-08-19T00:24:10.434Z,10.97
2023-08-19T00:26:46.773Z,9.50
2023-08-19T00:29:14.510Z,11.17
2023-08-19T00:31:46.895Z,10.80
2023-08-19T00:34:14.009Z,11.60
2023-08-19T00:36:42.925Z,11.30
2023-08-19T00:39:14.602Z,10.70
2023-08-19T00:41:41.612Z,9.47
2023-08-19T00:44:14.180Z,10.73
2023-08-19T00:46:42.340Z,10.47
2023-08-19T00:49:09.398Z,10.40
2023-08-19T00:51:36.449Z,9.40
2023-08-19T00:54:04.036Z,11.47
2023-08-19T00:56:31.185Z,10.30
2023-08-19T00:59:00.779Z,11.07
2023-08-19T01:01:27.765Z,11.30
2023-08-19T01:03:55.066Z,10.80
2023-08-19T01:06:55.800Z,10.13
2023-08-19T01:09:37.898Z,9.90
2023-08-19T01:12:19.916Z,11.33
2023-08-19T01:15:00.955Z,9.90
2023-08-19T01:17:31.237Z,11.43
2023-08-19T01:20:04.273Z,10.50
2023-08-19T01:22:43.551Z,9.23
2023-08-19T01:25:11.780Z,10.93
2023-08-19T01:27:38.748Z,9.93
2023-08-19T01:30:06.238Z,11.10
2023-08-19T01:32:39.631Z,12.00
2023-08-19T01:35:07.486Z,11.70
2023-08-19T01:37:55.263Z,11.67
2023-08-19T01:40:26.151Z,12.30
2023-08-19T01:42:54.564Z,13.83
2023-08-19T01:45:22.295Z,13.33
2023-08-19T01:47:56.613Z,11.73
2023-08-19T01:50:26.523Z,10.77
2023-08-19T01:52:53.655Z,10.83
2023-08-19T01:55:20.661Z,13.57
2023-08-19T01:57:47.651Z,13.50
2023-08-19T02:00:15.126Z,11.10
2023-08-19T02:02:42.359Z,11.30
2023-08-19T02:05:16.260Z,11.57
2023-08-19T02:07:44.050Z,12.35
2023-08-19T02:10:12.922Z,12.17
2023-08-19T02:12:43.035Z,12.80
2023-08-19T02:15:10.235Z,12.40
2023-08-19T02:17:40.017Z,11.90
2023-08-19T02:20:07.510Z,12.50
2023-08-19T02:22:34.490Z,14.10
2023-08-19T02:25:04.433Z,13.00
2023-08-19T02:27:36.090Z,12.90
2023-08-19T02:30:03.131Z,12.40
2023-08-19T02:32:30.236Z,12.37
2023-08-19T02:35:01.633Z,12.97
2023-08-19T02:37:28.708Z,13.67
2023-08-19T02:40:01.639Z,14.63
2023-08-19T02:42:30.995Z,13.47
2023-08-19T02:44:59.220Z,11.37
2023-08-19T02:47:26.282Z,12.43
2023-08-19T02:49:53.340Z,11.77
2023-08-19T02:52:20.289Z,10.40
2023-08-19T02:54:47.758Z,11.17
2023-08-19T02:57:19.832Z,10.10
2023-08-19T02:59:46.773Z,9.97
2023-08-19T03:02:16.407Z,11.40
2023-08-19T03:04:46.420Z,10.13
2023-08-19T03:07:23.720Z,10.07
2023-08-19T03:09:50.599Z,11.37
2023-08-19T03:12:20.182Z,8.27
2023-08-19T03:14:47.234Z,10.30
2023-08-19T03:17:14.153Z,9.00
2023-08-19T03:19:41.298Z,9.17
2023-08-19T03:22:08.286Z,8.00
2023-08-19T03:24:35.377Z,9.27
2023-08-19T03:27:02.407Z,7.77
2023-08-19T03:29:29.319Z,9.77
2023-08-19T03:31:58.209Z,9.00
2023-08-19T03:34:26.635Z,8.27
2023-08-19T03:36:53.835Z,9.33
2023-08-19T03:39:21.060Z,9.60
2023-08-19T03:41:48.074Z,9.83
2023-08-19T03:44:15.249Z,8.33
2023-08-19T03:46:45.531Z,9.27
2023-08-19T03:49:12.561Z,8.17
2023-08-19T03:51:42.698Z,7.93
2023-08-19T03:54:17.023Z,7.57
2023-08-19T03:56:45.211Z,7.82
2023-08-19T03:59:12.255Z,7.53
2023-08-19T04:01:42.237Z,8.67
2023-08-19T04:04:10.388Z,8.20
2023-08-19T04:06:37.462Z,7.90
2023-08-19T04:09:13.618Z,7.77
2023-08-19T04:11:40.738Z,7.03
2023-08-19T04:14:10.546Z,7.23
2023-08-19T04:16:40.696Z,7.53
2023-08-19T04:19:10.537Z,8.23
2023-08-19T04:21:37.459Z,7.77
2023-08-19T04:24:07.155Z,6.63
2023-08-19T04:26:34.172Z,6.90
2023-08-19T04:29:01.149Z,6.80
2023-08-19T04:31:28.082Z,6.77
2023-08-19T04:33:55.133Z,6.87
2023-08-19T04:36:24.967Z,6.33
2023-08-19T04:38:52.015Z,7.10
2023-08-19T04:41:18.921Z,5.93
2023-08-19T04:43:47.504Z,8.43
2023-08-19T04:46:14.554Z,7.07
2023-08-19T04:48:43.572Z,6.53
2023-08-19T04:51:10.524Z,5.97
2023-08-19T04:53:37.624Z,6.57
2023-08-19T04:56:05.540Z,6.73
2023-08-19T04:58:35.696Z,6.37
2023-08-19T05:01:03.942Z,7.30
2023-08-19T05:03:30.938Z,7.13
2023-08-19T05:05:58.935Z,5.60
2023-08-19T05:08:29.073Z,6.20
2023-08-19T05:10:56.031Z,6.60
2023-08-19T05:13:29.147Z,6.67
2023-08-19T05:16:06.018Z,6.63
2023-08-19T05:18:41.777Z,5.73
2023-08-19T05:21:08.923Z,7.03
2023-08-19T05:23:38.974Z,8.30
2023-08-19T05:26:09.268Z,7.40
2023-08-19T05:28:41.699Z,6.60
2023-08-19T05:31:08.923Z,6.23
2023-08-19T05:33:36.320Z,7.07
2023-08-19T05:36:04.224Z,6.50
2023-08-19T05:38:43.180Z,7.00
2023-08-19T05:41:10.152Z,7.07
2023-08-19T05:43:37.169Z,7.97
2023-08-19T05:46:08.416Z,6.90
2023-08-19T05:48:36.932Z,7.50
2023-08-19T05:51:04.748Z,6.70
2023-08-19T05:53:31.772Z,8.40
2023-08-19T05:55:58.789Z,7.70
2023-08-19T05:58:25.758Z,7.53
2023-08-19T06:01:04.296Z,7.87
2023-08-19T06:03:31.560Z,7.97
2023-08-19T06:05:58.538Z,10.97
2023-08-19T06:08:25.558Z,8.87
2023-08-19T06:11:07.697Z,10.17
2023-08-19T06:13:39.010Z,8.37
2023-08-19T06:16:06.383Z,10.27
2023-08-19T06:18:35.828Z,11.37
2023-08-19T06:21:04.614Z,10.57
2023-08-19T06:23:31.941Z,9.23
2023-08-19T06:25:59.009Z,9.30
2023-08-19T06:28:26.258Z,11.07
2023-08-19T06:30:53.861Z,9.00
2023-08-19T06:33:21.116Z,9.77
2023-08-19T06:35:49.732Z,11.27
2023-08-19T06:38:29.697Z,11.07
2023-08-19T06:41:06.311Z,11.47
2023-08-19T06:43:34.308Z,10.67
2023-08-19T06:46:03.153Z,13.10
2023-08-19T06:48:31.561Z,13.87
2023-08-19T06:50:59.175Z,12.57
2023-08-19T06:53:26.351Z,11.63
2023-08-19T06:56:11.793Z,11.67
2023-08-19T06:58:43.662Z,16.53
2023-08-19T07:01:22.591Z,17.53
2023-08-19T07:03:55.283Z,13.20
2023-08-19T07:06:23.204Z,15.20
2023-08-19T07:08:51.606Z,13.97
2023-08-19T07:11:19.716Z,18.80
2023-08-19T07:13:47.136Z,19.40
2023-08-19T07:16:17.617Z,17.57
2023-08-19T07:18:48.507Z,17.17
2023-08-19T07:21:16.585Z,19.20
2023-08-19T07:23:49.525Z,20.23
2023-08-19T07:26:23.137Z,18.60
2023-08-19T07:29:02.468Z,17.70
2023-08-19T07:31:29.720Z,14.23
2023-08-19T07:34:07.235Z,17.33
2023-08-19T07:36:34.802Z,20.37
2023-08-19T07:39:01.957Z,20.20
2023-08-19T07:41:31.876Z,18.50
2023-08-19T07:44:08.907Z,21.80
2023-08-19T07:46:37.128Z,20.20
2023-08-19T07:49:07.280Z,20.10
2023-08-19T07:51:34.311Z,21.03
2023-08-19T07:54:01.257Z,20.53
2023-08-19T07:56:28.427Z,20.00
2023-08-19T07:58:55.802Z,20.07
2023-08-19T08:01:23.079Z,20.53
2023-08-19T08:03:55.477Z,21.03
2023-08-19T08:06:25.074Z,18.80
2023-08-19T08:08:52.012Z,21.52
2023-08-19T08:11:19.070Z,22.30
2023-08-19T08:13:46.204Z,18.48
2023-08-19T08:16:16.188Z,20.50
2023-08-19T08:18:43.130Z,19.23
2023-08-19T08:21:11.597Z,20.10
2023-08-19T08:23:38.756Z,20.58
2023-08-19T08:26:06.404Z,19.88
2023-08-19T08:28:33.453Z,20.20
2023-08-19T08:31:06.860Z,18.95
2023-08-19T08:33:35.194Z,20.35
2023-08-19T08:36:02.277Z,19.92
2023-08-19T08:38:30.618Z,20.48
2023-08-19T08:41:04.332Z,19.10
2023-08-19T08:43:35.599Z,17.58
2023-08-19T08:46:02.765Z,19.35
2023-08-19T08:48:36.492Z,17.92
2023-08-19T08:51:06.185Z,19.17
2023-08-19T08:53:34.320Z,18.30
2023-08-19T08:56:06.962Z,18.17
2023-08-19T08:58:40.360Z,18.40
2023-08-19T09:01:08.609Z,18.52
2023-08-19T09:03:38.690Z,18.83
2023-08-19T09:06:15.280Z,18.73
2023-08-19T09:09:04.213Z,17.67
2023-08-19T09:11:46.051Z,17.45
2023-08-19T09:14:44.250Z,18.33
2023-08-19T09:17:18.314Z,17.58
2023-08-19T09:19:47.825Z,16.38
2023-08-19T09:22:17.909Z,17.73
2023-08-19T09:24:46.019Z,18.27
2023-08-19T09:27:17.581Z,17.63
2023-08-19T09:29:53.752Z,17.77
2023-08-19T09:32:34.991Z,17.73
2023-08-19T09:35:16.327Z,16.88
2023-08-19T09:37:43.682Z,16.65
2023-08-19T09:40:14.418Z,16.60
2023-08-19T09:42:42.340Z,18.25
2023-08-19T09:45:20.801Z,16.52
2023-08-19T09:47:53.407Z,16.00
2023-08-19T09:50:26.472Z,15.88
2023-08-19T09:52:58.725Z,14.25
2023-08-19T09:55:34.880Z,13.63
2023-08-19T09:58:02.271Z,14.70
2023-08-19T10:00:29.355Z,13.77
2023-08-19T10:03:00.698Z,15.68
2023-08-19T10:05:28.507Z,14.13
2023-08-19T10:08:19.115Z,14.23
2023-08-19T10:10:47.909Z,13.65
2023-08-19T10:13:17.144Z,13.00
2023-08-19T10:15:49.414Z,11.82
2023-08-19T10:18:32.816Z,13.27
2023-08-19T10:21:14.780Z,13.88
2023-08-19T10:23:49.325Z,13.25
2023-08-19T10:29:08.791Z,12.95
2023-08-19T10:31:56.106Z,12.45
2023-08-19T10:34:29.840Z,13.68
2023-08-19T10:37:08.388Z,13.52
2023-08-19T10:39:39.846Z,13.65
2023-08-19T10:42:26.349Z,12.32
2023-08-19T10:44:53.894Z,12.52
2023-08-19T10:47:20.959Z,13.73
2023-08-19T10:50:25.654Z,13.70
2023-08-19T10:53:06.785Z,12.93
2023-08-19T10:55:56.234Z,13.18
2023-08-19T10:58:26.949Z,13.32
2023-08-19T11:00:53.977Z,12.88
2023-08-19T11:03:26.753Z,12.75
2023-08-19T11:05:56.934Z,15.07
2023-08-19T11:08:24.015Z,13.18
2023-08-19T11:10:57.254Z,13.90
2023-08-19T11:13:24.621Z,13.73
2023-08-19T11:16:03.633Z,11.23
2023-08-19T11:18:36.307Z,12.73
2023-08-19T11:21:03.702Z,12.80
2023-08-19T11:23:33.552Z,12.93
2023-08-19T11:26:01.034Z,11.45
2023-08-19T11:28:40.988Z,11.00
2023-08-19T11:31:08.781Z,8.30
2023-08-19T11:33:39.296Z,9.95
2023-08-19T11:36:06.805Z,12.00
2023-08-19T11:38:34.234Z,11.55
2023-08-19T11:41:05.662Z,11.40
2023-08-19T11:43:45.267Z,10.02
2023-08-19T11:46:12.859Z,8.25
2023-08-19T11:48:44.024Z,9.00
2023-08-19T11:51:18.308Z,10.38
2023-08-19T11:53:50.831Z,9.05
2023-08-19T11:56:18.174Z,9.27
2023-08-19T11:58:53.149Z,11.02
2023-08-19T12:01:21.532Z,10.05
2023-08-19T12:03:56.534Z,11.35
2023-08-19T12:06:24.182Z,10.57
2023-08-19T12:08:53.059Z,10.65
2023-08-19T12:11:26.293Z,11.13
2023-08-19T12:13:53.680Z,10.98
2023-08-19T12:16:23.939Z,11.05
2023-08-19T12:18:55.291Z,11.23
2023-08-19T12:21:24.384Z,9.82
2023-08-19T12:23:51.856Z,10.07
2023-08-19T12:26:19.087Z,10.80
2023-08-19T12:28:46.038Z,10.02
2023-08-19T12:31:13.123Z,9.30
2023-08-19T12:33:43.422Z,9.43
2023-08-19T12:36:19.153Z,9.45
2023-08-19T12:38:47.209Z,9.88
2023-08-19T12:41:15.282Z,9.82
2023-08-19T12:43:48.367Z,9.15
2023-08-19T12:46:18.815Z,9.30
2023-08-19T12:48:45.832Z,10.70
2023-08-19T12:51:13.042Z,10.90
2023-08-19T12:53:43.271Z,9.93
2023-08-19T12:56:17.818Z,10.80
2023-08-19T12:58:50.110Z,10.50
2023-08-19T13:01:17.549Z,10.90
2023-08-19T13:03:44.917Z,9.73
2023-08-19T13:06:16.144Z,10.50
2023-08-19T13:11:31.122Z,10.90
2023-08-19T13:14:01.289Z,11.90
2023-08-19T13:16:28.707Z,12.07
2023-08-19T13:19:04.863Z,10.75
2023-08-19T13:21:44.447Z,12.52
2023-08-19T13:24:16.567Z,12.45
2023-08-19T13:26:46.562Z,13.15
2023-08-19T13:29:17.624Z,12.27
2023-08-19T13:31:45.044Z,12.70
2023-08-19T13:34:12.481Z,12.50
2023-08-19T13:36:39.952Z,13.32
2023-08-19T13:39:07.233Z,12.20
2023-08-19T13:41:40.019Z,12.65
2023-08-19T13:44:12.034Z,12.63
2023-08-19T13:46:41.161Z,12.45
2023-08-19T13:49:08.631Z,12.30
2023-08-19T13:51:41.282Z,11.68
2023-08-19T13:54:12.029Z,12.10
2023-08-19T13:56:39.333Z,13.05
2023-08-19T13:59:06.787Z,12.00
2023-08-19T14:01:42.752Z,11.57
2023-08-19T14:04:21.683Z,11.73
2023-08-19T14:06:54.074Z,10.98
2023-08-19T14:13:12.519Z,11.52
2023-08-19T14:15:40.001Z,11.95
2023-08-19T14:18:14.030Z,10.90
2023-08-19T14:20:46.822Z,12.38
2023-08-19T14:23:16.404Z,12.60
2023-08-19T14:25:43.754Z,12.68
2023-08-19T14:28:17.058Z,12.63
2023-08-19T14:30:47.199Z,12.73
2023-08-19T14:33:14.531Z,12.85
2023-08-19T14:35:51.025Z,13.73
2023-08-19T14:38:23.895Z,14.95
2023-08-19T14:40:55.791Z,14.00
2023-08-19T14:43:23.115Z,15.38
2023-08-19T14:45:53.158Z,15.07
2023-08-19T14:48:20.613Z,15.93
2023-08-19T14:50:49.538Z,18.75
2023-08-19T14:53:19.299Z,17.00
2023-08-19T14:55:46.702Z,19.65
2023-08-19T14:58:16.774Z,16.60
2023-08-19T15:00:46.758Z,18.70
2023-08-19T15:03:21.169Z,18.92
2023-08-19T15:08:15.612Z,17.85
2023-08-19T15:10:54.338Z,20.17
2023-08-19T15:13:24.166Z,18.20
2023-08-19T15:15:51.550Z,17.98
2023-08-19T15:18:18.946Z,19.38
2023-08-19T15:20:52.840Z,17.77
2023-08-19T15:23:20.208Z,18.45
2023-08-19T15:25:51.332Z,16.92
2023-08-19T15:28:21.424Z,16.83
2023-08-19T15:30:48.730Z,14.63
2023-08-19T15:33:16.043Z,16.00
2023-08-19T15:35:43.354Z,15.32
2023-08-19T15:38:13.322Z,13.80
2023-08-19T15:40:43.382Z,14.55
2023-08-19T15:43:10.766Z,15.32
2023-08-19T15:45:40.947Z,15.32
2023-08-19T15:48:08.403Z,14.13
2023-08-19T15:50:35.893Z,14.10
2023-08-19T15:53:03.291Z,14.63
2023-08-19T15:55:37.654Z,13.80
2023-08-19T15:58:07.939Z,13.82
2023-08-19T16:00:35.246Z,14.70
2023-08-19T16:03:02.670Z,15.52
2023-08-19T16:05:30.194Z,16.17
2023-08-19T16:07:58.932Z,15.15
2023-08-19T16:10:26.156Z,15.43
2023-08-19T16:12:53.487Z,14.27
2023-08-19T16:15:21.015Z,14.95
2023-08-19T16:17:48.288Z,13.77
2023-08-19T16:20:19.371Z,13.82
2023-08-19T16:22:46.733Z,15.05
2023-08-19T16:25:14.102Z,15.75
2023-08-19T16:27:41.536Z,14.95
2023-08-19T16:30:10.313Z,14.55
2023-08-19T16:32:40.473Z,14.43
2023-08-19T16:35:08.306Z,13.57
2023-08-19T16:37:38.449Z,15.10
2023-08-19T16:40:06.100Z,15.05
2023-08-19T16:42:33.505Z,13.70
2023-08-19T16:45:03.642Z,13.20
2023-08-19T16:47:36.534Z,12.48
2023-08-19T16:50:07.369Z,14.30
2023-08-19T16:52:34.820Z,12.80
2023-08-19T16:55:07.539Z,12.88
2023-08-19T16:57:37.419Z,12.63
2023-08-19T17:00:14.589Z,13.40
2023-08-19T17:02:42.205Z,12.57
2023-08-19T17:05:09.799Z,13.38
2023-08-19T17:07:37.402Z,12.52
2023-08-19T17:10:05.273Z,11.82
2023-08-19T17:12:37.432Z,12.20
2023-08-19T17:15:05.380Z,12.10
2023-08-19T17:17:33.446Z,12.90
2023-08-19T17:20:00.868Z,12.02
2023-08-19T17:22:41.579Z,11.35
2023-08-19T17:25:11.465Z,11.85
2023-08-19T17:27:41.683Z,11.73
2023-08-19T17:30:13.449Z,12.18
2023-08-19T17:32:40.908Z,11.80
2023-08-19T17:35:08.476Z,11.50
2023-08-19T17:37:36.086Z,11.55
2023-08-19T17:40:09.797Z,11.95
2023-08-19T17:42:37.758Z,11.93
2023-08-19T17:45:05.245Z,12.02
2023-08-19T17:47:35.907Z,11.10
2023-08-19T17:50:06.553Z,11.45
2023-08-19T17:52:33.914Z,12.30
2023-08-19T17:55:01.241Z,12.02
2023-08-19T17:57:28.449Z,12.13
2023-08-19T17:59:55.771Z,13.20
2023-08-19T18:02:22.859Z,11.68
2023-08-19T18:04:49.892Z,14.65
2023-08-19T18:07:17.287Z,13.70
2023-08-19T18:09:44.597Z,16.15
2023-08-19T18:12:11.638Z,17.80
2023-08-19T18:14:39.352Z,15.07
2023-08-19T18:17:07.907Z,16.75
2023-08-19T18:19:43.736Z,15.10
2023-08-19T18:22:11.144Z,15.00
2023-08-19T18:24:39.219Z,15.13
2023-08-19T18:27:09.195Z,18.95
2023-08-19T18:29:38.120Z,17.27
2023-08-19T18:32:05.428Z,15.90
2023-08-19T18:34:37.081Z,16.90
2023-08-19T18:37:05.043Z,16.85
2023-08-19T18:39:32.572Z,19.00
2023-08-19T18:42:00.034Z,17.27
2023-08-19T18:44:29.550Z,17.08
2023-08-19T18:46:59.893Z,21.15
2023-08-19T18:49:27.418Z,17.63
2023-08-19T18:51:54.365Z,19.17
2023-08-19T18:54:23.971Z,20.83
2023-08-19T18:56:51.244Z,19.65
2023-08-19T18:59:43.933Z,20.65
2023-08-19T19:02:11.414Z,19.10
2023-08-19T19:04:38.768Z,20.33
2023-08-19T19:07:05.892Z,22.73
2023-08-19T19:09:35.267Z,19.85
2023-08-19T19:12:04.797Z,19.75
2023-08-19T19:14:40.654Z,22.52
2023-08-19T19:17:11.990Z,22.33
2023-08-19T19:19:39.350Z,23.80
2023-08-19T19:22:06.681Z,24.52
2023-08-19T19:24:34.091Z,22.95
2023-08-19T19:27:01.182Z,23.73
2023-08-19T19:29:28.215Z,23.90
2023-08-19T19:31:58.359Z,24.55
2023-08-19T19:34:25.443Z,24.98
2023-08-19T19:36:52.694Z,25.00
2023-08-19T19:39:20.061Z,23.90
2023-08-19T19:41:47.397Z,23.40
2023-08-19T19:44:14.311Z,23.13
2023-08-19T19:46:41.856Z,21.65
2023-08-19T19:49:10.853Z,22.63
2023-08-19T19:51:38.690Z,22.48
2023-08-19T19:54:06.186Z,22.25
2023-08-19T19:56:33.179Z,21.90
2023-08-19T19:59:00.039Z,21.63
2023-08-19T20:01:27.901Z,21.00
2023-08-19T20:03:55.113Z,25.10
2023-08-19T20:06:22.371Z,25.27
2023-08-19T20:08:49.249Z,30.13
2023-08-19T20:11:16.142Z,27.33
2023-08-19T20:13:43.119Z,28.33
2023-08-19T20:16:13.445Z,24.42
2023-08-19T20:18:40.986Z,27.37
2023-08-19T20:21:08.328Z,25.27
2023-08-19T20:23:36.081Z,25.10
2023-08-19T20:26:03.455Z,23.08
2023-08-19T20:28:32.899Z,23.17
2023-08-19T20:31:04.885Z,24.30
2023-08-19T20:33:32.239Z,24.85
2023-08-19T20:36:02.373Z,23.67
2023-08-19T20:38:39.133Z,24.97
2023-08-19T20:41:06.281Z,24.40
2023-08-19T20:43:39.389Z,24.90
2023-08-19T20:46:06.624Z,21.77
2023-08-19T20:48:34.416Z,22.43
2023-08-19T20:51:01.731Z,22.90
2023-08-19T20:53:31.852Z,22.80
2023-08-19T20:55:59.136Z,25.43
2023-08-19T20:58:26.180Z,35.63
2023-08-19T21:00:56.463Z,61.30
2023-08-19T21:03:26.499Z,58.33
2023-08-19T21:05:53.698Z,52.10
2023-08-19T21:08:21.207Z,49.83
2023-08-19T21:10:48.641Z,45.23
2023-08-19T21:13:15.537Z,40.40
2023-08-19T21:15:42.550Z,33.30
2023-08-19T21:18:09.681Z,30.10
2023-08-19T21:20:36.665Z,31.77
2023-08-19T21:23:03.703Z,29.30
2023-08-19T21:25:30.706Z,31.33
2023-08-19T21:27:57.694Z,33.23
2023-08-19T21:30:24.637Z,33.70
2023-08-19T21:32:51.598Z,33.33
2023-08-19T21:35:18.629Z,32.47
2023-08-19T21:37:45.872Z,29.43
2023-08-19T21:40:13.378Z,27.87
2023-08-19T21:42:43.427Z,26.43
2023-08-19T21:45:10.850Z,26.33
2023-08-19T21:47:38.120Z,26.77
2023-08-19T21:50:06.311Z,25.17
2023-08-19T21:52:33.514Z,24.43
2023-08-19T21:55:00.777Z,23.47
2023-08-19T21:57:30.826Z,23.40
2023-08-19T21:59:58.087Z,23.03
2023-08-19T22:02:25.258Z,24.70
2023-08-19T22:04:52.322Z,26.60
2023-08-19T22:07:19.420Z,25.23
2023-08-19T22:09:46.925Z,23.47
2023-08-19T22:12:14.246Z,22.37
2023-08-19T22:14:44.654Z,21.40
2023-08-19T22:17:11.978Z,22.93
2023-08-19T22:19:41.159Z,21.20
2023-08-19T22:22:10.961Z,22.23
2023-08-19T22:24:38.336Z,19.30
2023-08-19T22:27:06.711Z,20.57
2023-08-19T22:29:34.058Z,20.67
2023-08-19T22:32:01.407Z,23.03
2023-08-19T22:34:28.587Z,22.50
2023-08-19T22:36:55.910Z,22.53
2023-08-19T22:39:23.191Z,27.00
2023-08-19T22:41:50.377Z,22.63
2023-08-19T22:44:19.267Z,21.80
2023-08-19T22:46:46.673Z,23.70
2023-08-19T22:49:13.669Z,24.47
2023-08-19T22:51:40.663Z,24.57
2023-08-19T22:54:07.568Z,23.00
2023-08-19T22:56:34.399Z,23.90
2023-08-19T22:59:01.342Z,24.70
2023-08-19T23:01:30.543Z,21.23
2023-08-19T23:03:57.864Z,22.47
2023-08-19T23:06:25.182Z,21.50
2023-08-19T23:08:55.211Z,19.83
2023-08-19T23:11:22.616Z,20.83
2023-08-19T23:13:49.882Z,21.53
2023-08-19T23:16:19.790Z,19.93
2023-08-19T23:18:49.536Z,18.10
2023-08-19T23:21:22.281Z,17.20
2023-08-19T23:23:50.028Z,18.33
2023-08-19T23:26:17.068Z,16.37
2023-08-19T23:28:44.072Z,20.10
2023-08-19T23:31:11.006Z,22.63
2023-08-19T23:33:37.926Z,21.07
2023-08-19T23:36:05.145Z,21.47
2023-08-19T23:38:32.310Z,21.13
2023-08-19T23:40:59.183Z,22.30
2023-08-19T23:43:26.160Z,21.70
2023-08-19T23:45:53.130Z,21.23
2023-08-19T23:48:23.210Z,20.77
2023-08-19T23:51:01.527Z,22.07
2023-08-19T23:53:34.737Z,23.00
2023-08-19T23:56:02.210Z,22.43
2023-08-19T23:58:38.978Z,22.30
